createdAt,value
2022-08-10T00:00:55.643Z,100042.88
2022-08-10T00:03:25.712Z,100043.75
2022-08-10T00:06:04.778Z,100039.63
2022-08-10T00:08:35.278Z,100044.56
2022-08-10T00:11:05.471Z,100039.56
2022-08-10T00:13:46.188Z,100031.41
2022-08-10T00:16:16.403Z,100039.06
2022-08-10T00:18:46.654Z,100042.41
2022-08-10T00:21:16.841Z,100033.31
2022-08-10T00:23:46.876Z,100031.50
2022-08-10T00:26:16.221Z,100040.22
2022-08-10T00:28:48.562Z,100034.31
2022-08-10T00:31:18.728Z,100036.28
2022-08-10T00:33:48.981Z,100039.59
2022-08-10T00:36:22.371Z,100042.66
2022-08-10T00:38:52.709Z,100043.28
2022-08-10T00:41:23.000Z,100044.19
2022-08-10T00:43:53.882Z,100037.81
2022-08-10T00:46:23.823Z,100036.00
2022-08-10T00:49:00.326Z,100035.78
2022-08-10T00:51:32.461Z,100032.63
2022-08-10T00:54:24.962Z,100029.97
2022-08-10T00:57:17.848Z,100033.56
2022-08-10T00:59:58.837Z,100027.38
2022-08-10T01:02:33.279Z,100016.91
2022-08-10T01:05:08.136Z,100020.22
2022-08-10T01:08:12.072Z,100013.53
2022-08-10T01:11:01.082Z,100024.38
2022-08-10T01:14:12.587Z,100028.78
2022-08-10T01:16:56.108Z,100023.94
2022-08-10T01:19:38.779Z,100014.25
2022-08-10T01:22:33.970Z,100014.84
2022-08-10T01:26:11.415Z,100014.56
2022-08-10T01:28:43.300Z,100014.84
2022-08-10T01:31:18.356Z,100022.16
2022-08-10T01:34:14.048Z,100017.03
2022-08-10T01:36:52.028Z,100022.22
2022-08-10T01:39:30.712Z,100025.50
2022-08-10T01:42:04.725Z,100016.63
2022-08-10T01:44:50.100Z,100020.41
2022-08-10T01:47:41.806Z,100009.34
2022-08-10T01:50:56.202Z,100011.28
2022-08-10T01:53:45.841Z,100020.47
2022-08-10T01:56:19.392Z,100021.56
2022-08-10T02:02:10.427Z,100012.75
2022-08-10T02:04:46.379Z,100008.16
2022-08-10T02:07:25.145Z,100012.22
2022-08-10T02:09:59.364Z,100007.91
2022-08-10T02:12:48.252Z,99999.81
2022-08-10T02:15:23.095Z,99999.00
2022-08-10T02:18:01.882Z,99985.50
2022-08-10T02:20:42.021Z,99986.31
2022-08-10T02:23:21.851Z,99981.19
2022-08-10T02:25:58.342Z,99980.13
2022-08-10T02:29:17.474Z,99982.56
2022-08-10T02:32:03.678Z,99967.69
2022-08-10T02:37:50.915Z,99962.81
2022-08-10T02:45:15.496Z,99963.38
2022-08-10T02:45:19.059Z,99960.94
2022-08-10T02:46:27.149Z,99967.44
2022-08-10T02:49:06.393Z,99963.41
2022-08-10T02:52:07.781Z,99959.91
2022-08-10T02:54:46.144Z,99963.94
2022-08-10T02:57:36.703Z,99963.66
2022-08-10T03:00:32.152Z,99962.31
2022-08-10T03:03:13.419Z,99958.53
2022-08-10T03:05:45.598Z,99961.50
2022-08-10T03:08:20.719Z,99960.69
2022-08-10T03:10:53.062Z,99959.31
2022-08-10T03:13:26.085Z,99957.97
2022-08-10T03:15:59.520Z,99966.63
2022-08-10T03:18:31.551Z,99974.22
2022-08-10T03:21:01.970Z,99961.75
2022-08-10T03:23:32.679Z,99956.88
2022-08-10T03:26:04.141Z,99956.88
2022-08-10T03:28:35.741Z,99950.91
2022-08-10T03:31:07.201Z,99948.19
2022-08-10T03:33:42.246Z,99943.84
2022-08-10T03:36:40.728Z,99944.94
2022-08-10T03:39:09.095Z,99951.44
2022-08-10T03:41:47.774Z,99933.53
2022-08-10T03:44:36.091Z,99928.09
2022-08-10T03:47:15.068Z,99925.94
2022-08-10T03:49:51.010Z,99922.94
2022-08-10T03:52:28.933Z,99931.59
2022-08-10T03:55:00.603Z,99908.06
2022-08-10T03:57:34.947Z,99908.84
2022-08-10T04:00:23.127Z,99895.81
2022-08-10T04:02:55.104Z,99904.72
2022-08-10T04:05:38.844Z,99896.06
2022-08-10T04:08:10.415Z,99887.38
2022-08-10T04:10:41.480Z,99881.41
2022-08-10T04:13:13.639Z,99885.69
2022-08-10T04:15:44.467Z,99878.09
2022-08-10T04:18:15.747Z,99875.09
2022-08-10T04:21:18.337Z,99872.06
2022-08-10T04:23:53.169Z,99863.94
2022-08-10T04:26:29.661Z,99856.34
2022-08-10T04:29:00.415Z,99851.16
2022-08-10T04:31:34.805Z,99841.94
2022-08-10T04:34:08.814Z,99847.09
2022-08-10T04:36:40.795Z,99853.31
2022-08-10T04:39:15.657Z,99842.19
2022-08-10T04:41:47.677Z,99839.47
2022-08-10T04:44:18.653Z,99832.16
2022-08-10T04:46:56.102Z,99834.53
2022-08-10T04:49:56.278Z,99824.75
2022-08-10T04:52:20.095Z,99824.22
2022-08-10T04:54:52.499Z,99828.53
2022-08-10T04:57:23.437Z,99834.50
2022-08-10T04:59:53.773Z,99820.06
2022-08-10T05:02:31.328Z,99821.44
2022-08-10T05:05:04.498Z,99821.66
2022-08-10T05:07:53.806Z,99824.06
2022-08-10T05:10:26.426Z,99830.00
2022-08-10T05:12:57.857Z,99816.63
2022-08-10T05:15:32.940Z,99818.19
2022-08-10T05:18:11.201Z,99816.81
2022-08-10T05:20:50.025Z,99818.66
2022-08-10T05:23:28.015Z,99821.56
2022-08-10T05:26:02.250Z,99825.13
2022-08-10T05:28:35.163Z,99812.06
2022-08-10T05:31:12.218Z,99810.66
2022-08-10T05:33:53.254Z,99802.53
2022-08-10T05:36:24.374Z,99807.91
2022-08-10T05:38:55.498Z,99815.47
2022-08-10T05:41:52.980Z,99806.81
2022-08-10T05:44:26.208Z,99812.19
2022-08-10T05:46:56.641Z,99802.13
2022-08-10T05:49:29.050Z,99802.66
2022-08-10T05:52:03.000Z,99809.38
2022-08-10T05:54:33.844Z,99808.81
2022-08-10T05:57:04.672Z,99812.03
2022-08-10T06:00:10.714Z,99808.75
2022-08-10T06:03:04.398Z,99798.94
2022-08-10T06:05:38.950Z,99805.97
2022-08-10T06:08:26.859Z,99804.84
2022-08-10T06:12:23.509Z,99797.50
2022-08-10T06:14:12.970Z,99800.94
2022-08-10T06:16:46.460Z,99785.75
2022-08-10T06:19:17.131Z,99779.44
2022-08-10T06:22:01.432Z,99771.00
2022-08-10T06:24:35.395Z,99765.50
2022-08-10T06:27:07.363Z,99759.78
2022-08-10T06:29:42.510Z,99759.47
2022-08-10T06:32:15.148Z,99759.25
2022-08-10T06:34:52.922Z,99752.09
2022-08-10T06:37:28.639Z,99750.19
2022-08-10T06:39:59.579Z,99746.91
2022-08-10T06:42:44.308Z,99739.75
2022-08-10T06:45:33.183Z,99750.03
2022-08-10T06:48:40.429Z,99741.59
2022-08-10T06:51:19.461Z,99746.66
2022-08-10T06:53:59.598Z,99729.16
2022-08-10T06:57:08.346Z,99732.31
2022-08-10T06:59:57.304Z,99719.78
2022-08-10T07:02:41.219Z,99718.44
2022-08-10T07:06:13.604Z,99718.34
2022-08-10T07:08:52.137Z,99710.69
2022-08-10T07:11:24.150Z,99711.53
2022-08-10T07:14:15.569Z,99714.25
2022-08-10T07:16:50.636Z,99717.97
2022-08-10T07:19:25.788Z,99708.41
2022-08-10T07:22:00.108Z,99720.84
2022-08-10T07:24:34.122Z,99699.53
2022-08-10T07:27:09.505Z,99696.72
2022-08-10T07:29:54.302Z,99693.69
2022-08-10T07:32:25.624Z,99697.72
2022-08-10T07:34:58.451Z,99697.63
2022-08-10T07:37:34.874Z,99700.03
2022-08-10T07:40:07.108Z,99695.31
2022-08-10T07:42:45.640Z,99689.88
2022-08-10T07:45:16.956Z,99692.28
2022-08-10T07:48:13.626Z,99689.47
2022-08-10T07:50:45.103Z,99678.00
2022-08-10T07:53:23.802Z,99674.88
2022-08-10T07:56:05.362Z,99668.81
2022-08-10T07:58:56.068Z,99675.00
2022-08-10T08:01:36.458Z,99672.75
2022-08-10T08:04:12.118Z,99666.69
2022-08-10T08:06:46.259Z,99677.56
2022-08-10T08:09:17.851Z,99664.53
2022-08-10T08:11:50.855Z,99662.31
2022-08-10T08:14:23.493Z,99663.31
2022-08-10T08:16:57.998Z,99664.09
2022-08-10T08:19:37.062Z,99676.31
2022-08-10T08:24:09.884Z,99667.53
2022-08-10T08:24:59.947Z,99669.34
2022-08-10T08:27:31.835Z,99666.81
2022-08-10T08:30:07.174Z,99664.09
2022-08-10T08:32:40.770Z,99666.19
2022-08-10T08:35:15.113Z,99675.34
2022-08-10T08:38:31.780Z,99667.19
2022-08-10T08:40:43.017Z,99670.81
2022-08-10T08:43:39.765Z,99663.66
2022-08-10T08:46:59.232Z,99662.41
2022-08-10T08:50:09.118Z,99658.38
2022-08-10T08:53:01.230Z,99652.31
2022-08-10T08:56:04.321Z,99648.47
2022-08-10T08:58:55.085Z,99655.53
2022-08-10T09:01:43.691Z,99660.38
2022-08-10T09:04:34.903Z,99658.16
2022-08-10T09:07:59.672Z,99662.97
2022-08-10T09:10:37.691Z,99664.56
2022-08-10T09:13:28.026Z,99662.66
2022-08-10T09:16:45.249Z,99655.13
2022-08-10T09:19:36.841Z,99655.53
2022-08-10T09:22:18.772Z,99665.75
2022-08-10T09:25:15.464Z,99664.22
2022-08-10T09:27:51.858Z,99667.66
2022-08-10T09:31:10.909Z,99661.22
2022-08-10T09:36:28.153Z,99671.31
2022-08-10T09:37:39.915Z,99676.69
2022-08-10T09:41:00.977Z,99671.44
2022-08-10T09:43:37.283Z,99671.38
2022-08-10T09:46:36.273Z,99670.16
2022-08-10T09:49:36.267Z,99661.88
2022-08-10T09:52:35.922Z,99657.63
2022-08-10T09:56:18.281Z,99659.66
2022-08-10T09:59:59.602Z,99657.34
2022-08-10T10:02:16.146Z,99662.38
2022-08-10T10:05:12.708Z,99661.69
2022-08-10T10:07:53.196Z,99654.69
2022-08-10T10:10:35.807Z,99651.28
2022-08-10T10:13:41.641Z,99653.00
2022-08-10T10:16:46.931Z,99649.78
2022-08-10T10:19:40.520Z,99656.41
2022-08-10T10:22:48.915Z,99662.09
2022-08-10T10:25:52.545Z,99662.41
2022-08-10T10:32:42.440Z,99662.19
2022-08-10T10:35:38.083Z,99661.97
2022-08-10T10:38:55.142Z,99667.72
2022-08-10T10:45:29.679Z,99666.50
2022-08-10T10:48:45.886Z,99672.81
2022-08-10T10:56:13.268Z,99675.72
2022-08-10T10:58:54.839Z,99671.75
2022-08-10T11:06:16.561Z,99683.41
2022-08-10T11:10:08.635Z,99684.81
2022-08-10T11:12:39.982Z,99689.03
2022-08-10T11:15:32.721Z,99694.31
2022-08-10T11:18:36.215Z,99695.78
2022-08-10T11:21:42.342Z,99695.63
2022-08-10T11:24:48.885Z,99695.47
2022-08-10T11:31:40.661Z,99696.25
2022-08-10T11:34:48.127Z,99697.94
2022-08-10T11:38:32.668Z,99697.50
2022-08-10T11:42:09.452Z,99702.97
2022-08-10T11:45:14.094Z,99706.81
2022-08-10T11:48:57.055Z,99702.56
2022-08-10T11:52:15.394Z,99703.75
2022-08-10T11:55:37.556Z,99702.53
2022-08-10T11:59:16.540Z,99703.94
2022-08-10T12:02:39.584Z,99704.56
2022-08-10T12:10:08.871Z,99699.50
2022-08-10T12:15:32.958Z,99703.16
2022-08-10T12:18:23.624Z,99701.00
2022-08-10T12:21:22.213Z,99708.09
2022-08-10T12:24:17.115Z,99711.66
2022-08-10T12:27:57.062Z,99721.72
2022-08-10T12:30:34.689Z,99728.25
2022-08-10T12:33:16.557Z,99731.53
2022-08-10T12:36:18.421Z,99725.03
2022-08-10T12:39:17.355Z,99738.59
2022-08-10T12:42:12.069Z,99741.38
2022-08-10T12:45:14.748Z,99743.53
2022-08-10T12:47:55.701Z,99742.50
2022-08-10T12:50:32.991Z,99754.44
2022-08-10T12:53:12.414Z,99748.75
2022-08-10T12:55:46.500Z,99756.06
2022-08-10T12:58:57.990Z,99768.03
2022-08-10T13:01:16.733Z,99757.22
2022-08-10T13:04:21.570Z,99764.56
2022-08-10T13:06:51.042Z,99764.03
2022-08-10T13:09:32.581Z,99751.31
2022-08-10T13:12:44.501Z,99748.59
2022-08-10T13:15:50.113Z,99745.91
2022-08-10T13:18:45.961Z,99737.50
2022-08-10T13:21:21.476Z,99739.97
2022-08-10T13:24:04.230Z,99738.31
2022-08-10T13:26:49.468Z,99746.72
2022-08-10T13:29:44.138Z,99750.25
2022-08-10T13:32:24.113Z,99742.41
2022-08-10T13:34:59.603Z,99734.81
2022-08-10T13:37:32.219Z,99742.66
2022-08-10T13:40:04.878Z,99741.59
2022-08-10T13:42:41.842Z,99732.94
2022-08-10T13:45:25.363Z,99738.34
2022-08-10T13:48:10.285Z,99734.81
2022-08-10T13:50:43.091Z,99735.63
2022-08-10T13:53:19.886Z,99737.25
2022-08-10T13:55:57.338Z,99739.72
2022-08-10T13:58:41.518Z,99740.25
2022-08-10T14:04:43.027Z,99735.13
2022-08-10T14:08:00.288Z,99733.53
2022-08-10T14:11:11.311Z,99729.72
2022-08-10T14:14:40.142Z,99731.09
2022-08-10T14:17:44.769Z,99737.84
2022-08-10T14:20:29.221Z,99722.19
2022-08-10T14:23:25.070Z,99733.28
2022-08-10T14:30:01.701Z,99733.53
2022-08-10T14:33:10.952Z,99734.63
2022-08-10T14:39:20.241Z,99723.53
2022-08-10T14:42:27.766Z,99720.03
2022-08-10T14:45:47.356Z,99725.44
2022-08-10T14:49:26.667Z,99724.91
2022-08-10T14:52:52.731Z,99727.63
2022-08-10T14:55:58.744Z,99721.94
2022-08-10T15:05:52.950Z,99740.84
2022-08-10T15:12:18.614Z,99737.06
2022-08-10T15:15:30.452Z,99736.25
2022-08-10T15:18:27.709Z,99740.28
2022-08-10T15:24:13.897Z,99741.09
2022-08-10T15:26:58.003Z,99735.44
2022-08-10T15:34:02.283Z,99735.44
2022-08-10T15:37:40.134Z,99733.81
2022-08-10T15:40:50.935Z,99725.16
2022-08-10T15:43:53.029Z,99723.81
2022-08-10T15:47:15.181Z,99721.94
2022-08-10T15:50:03.697Z,99720.31
2022-08-10T15:57:09.843Z,99718.13
2022-08-10T16:00:26.885Z,99714.63
2022-08-10T16:03:54.567Z,99708.97
2022-08-10T16:07:09.868Z,99707.06
2022-08-10T16:10:24.900Z,99699.78
2022-08-10T16:13:50.317Z,99706.78
2022-08-10T16:16:17.891Z,99697.84
2022-08-10T16:18:54.757Z,99702.94
2022-08-10T16:21:30.415Z,99687.00
2022-08-10T16:24:15.289Z,99688.09
2022-08-10T16:26:52.673Z,99684.31
2022-08-10T16:29:26.474Z,99685.94
2022-08-10T16:32:05.033Z,99679.47
2022-08-10T16:34:39.815Z,99673.25
2022-08-10T16:37:11.863Z,99670.25
2022-08-10T16:40:01.428Z,99661.91
2022-08-10T16:42:45.076Z,99660.56
2022-08-10T16:45:24.364Z,99657.31
2022-08-10T16:47:57.973Z,99657.81
2022-08-10T16:50:32.200Z,99645.41
2022-08-10T16:53:07.173Z,99654.59
2022-08-10T16:55:48.504Z,99657.28
2022-08-10T16:58:36.471Z,99654.59
2022-08-10T17:01:10.533Z,99654.59
2022-08-10T17:04:08.302Z,99648.41
2022-08-10T17:06:53.873Z,99652.16
2022-08-10T17:09:30.682Z,99642.44
2022-08-10T17:12:06.046Z,99647.03
2022-08-10T17:14:41.622Z,99638.66
2022-08-10T17:17:28.130Z,99638.13
2022-08-10T17:20:31.375Z,99636.50
2022-08-10T17:23:00.911Z,99633.28
2022-08-10T17:25:45.848Z,99630.84
2022-08-10T17:28:33.260Z,99628.94
2022-08-10T17:31:53.211Z,99635.69
2022-08-10T17:34:04.131Z,99632.44
2022-08-10T17:36:38.052Z,99623.00
2022-08-10T17:39:13.913Z,99625.69
2022-08-10T17:41:49.800Z,99624.34
2022-08-10T17:44:21.403Z,99620.53
2022-08-10T17:46:52.521Z,99623.78
2022-08-10T17:49:22.971Z,99613.53
2022-08-10T17:51:55.941Z,99615.69
2022-08-10T17:54:40.440Z,99614.06
2022-08-10T17:57:17.227Z,99612.44
2022-08-10T17:59:51.474Z,99609.47
2022-08-10T18:02:30.606Z,99625.38
2022-08-10T18:05:03.948Z,99626.41
2022-08-10T18:07:40.456Z,99623.41
2022-08-10T18:10:16.249Z,99629.31
2022-08-10T18:12:54.460Z,99627.97
2022-08-10T18:15:28.780Z,99623.66
2022-08-10T18:18:02.646Z,99615.53
2022-08-10T18:20:39.414Z,99615.25
2022-08-10T18:23:11.178Z,99617.41
2022-08-10T18:25:45.625Z,99607.69
2022-08-10T18:28:23.117Z,99617.13
2022-08-10T18:30:55.636Z,99611.72
2022-08-10T18:33:32.885Z,99612.53
2022-08-10T18:36:06.491Z,99617.94
2022-08-10T18:38:39.557Z,99621.44
2022-08-10T18:41:17.793Z,99624.16
2022-08-10T18:44:05.668Z,99622.50
2022-08-10T18:46:56.647Z,99617.63
2022-08-10T18:49:35.439Z,99625.19
2022-08-10T18:52:16.784Z,99614.66
2022-08-10T18:54:50.780Z,99628.13
2022-08-10T18:57:57.867Z,99598.75
2022-08-10T19:00:48.710Z,99597.94
2022-08-10T19:03:36.821Z,99593.63
2022-08-10T19:07:00.857Z,99607.63
2022-08-10T19:09:51.908Z,99616.50
2022-08-10T19:12:46.183Z,99622.41
2022-08-10T19:15:28.090Z,99616.19
2022-08-10T19:18:13.269Z,99623.69
2022-08-10T19:21:25.154Z,99609.38
2022-08-10T19:24:01.174Z,99608.00
2022-08-10T19:26:46.042Z,99620.91
2022-08-10T19:30:09.036Z,99631.94
2022-08-10T19:32:50.282Z,99632.78
2022-08-10T19:36:04.516Z,99633.03
2022-08-10T19:39:06.296Z,99630.06
2022-08-10T19:41:54.499Z,99625.19
2022-08-10T19:44:40.030Z,99629.72
2022-08-10T19:47:40.466Z,99625.97
2022-08-10T19:50:36.109Z,99624.59
2022-08-10T19:53:06.764Z,99622.72
2022-08-10T19:56:30.591Z,99626.50
2022-08-10T20:00:16.478Z,99622.97
2022-08-10T20:03:08.131Z,99617.31
2022-08-10T20:06:18.858Z,99620.59
2022-08-10T20:09:16.757Z,99618.97
2022-08-10T20:12:00.020Z,99612.75
2022-08-10T20:14:59.377Z,99616.28
2022-08-10T20:17:49.317Z,99615.72
2022-08-10T20:20:50.146Z,99615.97
2022-08-10T20:23:30.380Z,99619.72
2022-08-10T20:26:29.239Z,99625.38
2022-08-10T20:29:16.494Z,99629.94
2022-08-10T20:32:22.310Z,99638.28
2022-08-10T20:35:07.442Z,99635.03
2022-08-10T20:38:03.805Z,99637.72
2022-08-10T20:40:40.834Z,99635.28
2022-08-10T20:43:32.034Z,99631.22
2022-08-10T20:46:23.008Z,99643.06
2022-08-10T20:49:06.189Z,99641.19
2022-08-10T20:52:04.016Z,99633.91
2022-08-10T20:55:00.848Z,99636.31
2022-08-10T20:57:57.601Z,99640.34
2022-08-10T21:00:51.195Z,99630.34
2022-08-10T21:03:43.982Z,99629.78
2022-08-10T21:06:55.077Z,99631.13
2022-08-10T21:09:44.083Z,99633.25
2022-08-10T21:12:34.091Z,99645.59
2022-08-10T21:15:30.212Z,99637.47
2022-08-10T21:18:20.745Z,99649.56
2022-08-10T21:21:00.017Z,99645.50
2022-08-10T21:23:31.274Z,99648.19
2022-08-10T21:26:29.905Z,99660.28
2022-08-10T21:29:37.992Z,99659.72
2022-08-10T21:32:22.225Z,99652.97
2022-08-10T21:38:36.819Z,99671.25
2022-08-10T21:41:58.011Z,99669.63
2022-08-10T21:45:11.076Z,99669.63
2022-08-10T21:48:07.212Z,99667.19
2022-08-10T21:51:24.207Z,99665.56
2022-08-10T21:54:39.812Z,99668.81
2022-08-10T21:57:43.017Z,99668.31
2022-08-10T22:00:50.064Z,99673.19
2022-08-10T22:03:40.014Z,99672.69
2022-08-10T22:06:32.202Z,99663.28
2022-08-10T22:09:27.737Z,99665.47
2022-08-10T22:12:31.686Z,99655.25
2022-08-10T22:16:03.835Z,99662.81
2022-08-10T22:18:58.871Z,99669.81
2022-08-10T22:22:27.090Z,99664.97
2022-08-10T22:25:47.486Z,99667.63
2022-08-10T22:28:40.034Z,99673.00
2022-08-10T22:31:24.933Z,99651.34
2022-08-10T22:31:48.213Z,99683.78
2022-08-10T22:35:00.539Z,99675.69
2022-08-10T22:37:56.869Z,99685.66
2022-08-10T22:40:45.730Z,99695.63
2022-08-10T22:43:46.075Z,99689.97
2022-08-10T22:46:47.255Z,99695.13
2022-08-10T22:49:26.762Z,99693.28
2022-08-10T22:52:14.449Z,99686.84
2022-08-10T22:55:29.775Z,99675.88
2022-08-10T22:58:18.019Z,99672.69
2022-08-10T23:01:03.752Z,99677.88
2022-08-10T23:03:51.497Z,99687.03
2022-08-10T23:06:28.330Z,99690.84
2022-08-10T23:09:04.679Z,99689.56
2022-08-10T23:11:46.787Z,99683.94
2022-08-10T23:14:19.557Z,99692.31
2022-08-10T23:17:14.557Z,99690.19
2022-08-10T23:19:47.816Z,99700.16
2022-08-10T23:22:21.049Z,99695.34
2022-08-10T23:25:30.087Z,99686.47
2022-08-10T23:28:12.312Z,99699.44
2022-08-10T23:30:47.944Z,99689.22
2022-08-10T23:33:37.579Z,99696.78
2022-08-10T23:36:33.800Z,99683.34
2022-08-10T23:39:25.254Z,99689.81
2022-08-10T23:42:06.352Z,99689.06
2022-08-10T23:44:49.463Z,99692.03
2022-08-10T23:47:25.581Z,99696.91
2022-08-10T23:49:59.592Z,99706.34
2022-08-10T23:52:36.304Z,99708.53
2022-08-10T23:55:14.382Z,99713.41
2022-08-10T23:57:48.782Z,99711.50
